createdAt,value
2022-12-08T00:00:14.557Z,1.60
2022-12-08T00:02:44.962Z,2.10
2022-12-08T00:05:33.537Z,1.98
2022-12-08T00:08:22.266Z,1.48
2022-12-08T00:10:52.435Z,1.83
2022-12-08T00:13:22.613Z,1.40
2022-12-08T00:15:52.823Z,1.33
2022-12-08T00:18:23.015Z,2.40
2022-12-08T00:20:57.228Z,1.58
2022-12-08T00:23:27.542Z,1.38
2022-12-08T00:26:01.404Z,1.80
2022-12-08T00:28:32.742Z,1.65
2022-12-08T00:31:10.520Z,1.98
2022-12-08T00:33:40.734Z,2.35
2022-12-08T00:36:15.353Z,1.73
2022-12-08T00:38:47.338Z,1.67
2022-12-08T00:41:40.285Z,1.90
2022-12-08T00:44:13.188Z,1.17
2022-12-08T00:46:43.447Z,1.42
2022-12-08T00:49:14.494Z,1.10
2022-12-08T00:51:44.754Z,2.78
2022-12-08T00:54:15.530Z,1.98
2022-12-08T00:56:46.422Z,1.50
2022-12-08T00:59:16.591Z,1.33
2022-12-08T01:01:47.909Z,1.40
2022-12-08T01:04:19.163Z,1.35
2022-12-08T01:06:49.824Z,1.00
2022-12-08T01:09:20.178Z,1.38
2022-12-08T01:11:50.611Z,1.40
2022-12-08T01:14:21.242Z,1.20
2022-12-08T01:16:51.575Z,1.35
2022-12-08T01:19:21.890Z,1.60
2022-12-08T01:21:52.047Z,1.20
2022-12-08T01:24:22.303Z,1.08
2022-12-08T01:26:52.626Z,0.98
2022-12-08T01:29:22.806Z,0.80
2022-12-08T01:31:53.034Z,0.70
2022-12-08T01:34:23.190Z,1.20
2022-12-08T01:36:53.374Z,1.20
2022-12-08T01:39:23.487Z,2.13
2022-12-08T01:41:53.680Z,1.33
2022-12-08T01:44:23.890Z,1.25
2022-12-08T01:46:54.881Z,1.30
2022-12-08T01:49:34.975Z,1.42
2022-12-08T01:52:21.937Z,1.40
2022-12-08T01:57:42.607Z,1.38
2022-12-08T02:00:16.050Z,1.00
2022-12-08T02:03:03.003Z,1.73
2022-12-08T02:05:40.008Z,1.50
2022-12-08T02:08:13.126Z,0.80
2022-12-08T02:10:44.064Z,1.10
2022-12-08T02:13:17.838Z,1.05
2022-12-08T02:16:09.192Z,1.17
2022-12-08T02:19:29.141Z,0.85
2022-12-08T02:22:09.513Z,0.90
2022-12-08T02:25:13.734Z,0.95
2022-12-08T02:28:02.282Z,1.40
2022-12-08T02:30:55.486Z,1.08
2022-12-08T02:33:44.411Z,1.00
2022-12-08T02:37:04.309Z,1.33
2022-12-08T02:39:44.541Z,0.70
2022-12-08T02:42:37.348Z,0.93
2022-12-08T02:45:16.847Z,0.93
2022-12-08T02:47:47.300Z,1.10
2022-12-08T02:50:17.475Z,0.70
2022-12-08T02:52:48.493Z,1.15
2022-12-08T02:55:43.288Z,1.13
2022-12-08T02:58:30.992Z,1.20
2022-12-08T03:01:25.913Z,1.13
2022-12-08T03:04:31.271Z,1.23
2022-12-08T03:07:24.840Z,0.95
2022-12-08T03:10:03.714Z,1.05
2022-12-08T03:12:44.035Z,1.08
2022-12-08T03:15:18.616Z,1.35
2022-12-08T03:17:57.057Z,0.95
2022-12-08T03:20:30.127Z,1.42
2022-12-08T03:23:05.100Z,1.67
2022-12-08T03:25:38.772Z,1.27
2022-12-08T03:28:09.081Z,1.80
2022-12-08T03:30:43.547Z,1.23
2022-12-08T03:33:23.996Z,1.75
2022-12-08T03:35:55.901Z,1.70
2022-12-08T03:38:26.695Z,1.30
2022-12-08T03:41:15.323Z,1.10
2022-12-08T03:43:52.961Z,1.30
2022-12-08T03:48:56.280Z,1.48
2022-12-08T03:51:27.412Z,1.40
2022-12-08T03:53:57.617Z,1.40
2022-12-08T03:56:30.879Z,1.50
2022-12-08T03:59:01.481Z,2.00
2022-12-08T04:01:32.163Z,2.05
2022-12-08T04:04:02.505Z,1.70
2022-12-08T04:06:32.896Z,1.70
2022-12-08T04:09:03.113Z,1.75
2022-12-08T04:11:33.526Z,2.20
2022-12-08T04:14:03.771Z,1.60
2022-12-08T04:16:34.025Z,2.33
2022-12-08T04:19:04.312Z,2.33
2022-12-08T04:21:34.560Z,1.60
2022-12-08T04:24:04.802Z,2.65
2022-12-08T04:26:34.986Z,2.45
2022-12-08T04:29:05.181Z,2.55
2022-12-08T04:31:35.345Z,2.03
2022-12-08T04:34:05.597Z,3.40
2022-12-08T04:36:35.945Z,1.83
2022-12-08T04:39:06.130Z,3.67
2022-12-08T04:41:36.241Z,2.80
2022-12-08T04:44:06.482Z,3.70
2022-12-08T04:46:41.710Z,3.55
2022-12-08T04:49:13.526Z,4.10
2022-12-08T04:51:43.757Z,3.55
2022-12-08T04:54:13.858Z,3.58
2022-12-08T04:56:44.024Z,4.00
2022-12-08T04:59:14.193Z,4.00
2022-12-08T05:01:44.467Z,2.97
2022-12-08T05:04:14.731Z,2.33
2022-12-08T05:06:44.873Z,4.63
2022-12-08T05:09:15.090Z,2.70
2022-12-08T05:11:48.867Z,3.58
2022-12-08T05:14:19.974Z,3.65
2022-12-08T05:16:50.437Z,2.72
2022-12-08T05:19:20.653Z,3.03
2022-12-08T05:21:50.882Z,2.80
2022-12-08T05:24:21.074Z,2.90
2022-12-08T05:26:51.313Z,2.50
2022-12-08T05:29:21.546Z,3.00
2022-12-08T05:31:51.987Z,3.58
2022-12-08T05:34:22.331Z,2.70
2022-12-08T05:36:52.609Z,2.38
2022-12-08T05:39:22.812Z,3.70
2022-12-08T05:41:53.009Z,4.47
2022-12-08T05:44:23.218Z,3.03
2022-12-08T05:46:53.358Z,4.38
2022-12-08T05:49:23.549Z,3.13
2022-12-08T05:51:53.695Z,2.58
2022-12-08T05:54:24.194Z,2.80
2022-12-08T05:56:54.488Z,4.22
2022-12-08T05:59:24.787Z,3.20
2022-12-08T06:01:54.960Z,4.15
2022-12-08T06:04:25.506Z,3.85
2022-12-08T06:06:55.916Z,3.30
2022-12-08T06:09:26.627Z,3.75
2022-12-08T06:11:56.885Z,3.17
2022-12-08T06:14:27.069Z,3.63
2022-12-08T06:16:57.371Z,6.68
2022-12-08T06:19:27.547Z,3.58
2022-12-08T06:21:57.724Z,3.72
2022-12-08T06:24:27.915Z,3.15
2022-12-08T06:26:58.139Z,3.50
2022-12-08T06:29:28.346Z,3.50
2022-12-08T06:31:58.644Z,3.30
2022-12-08T06:34:28.917Z,2.83
2022-12-08T06:36:59.162Z,3.13
2022-12-08T06:39:29.481Z,2.85
2022-12-08T06:42:18.458Z,4.13
2022-12-08T06:44:48.776Z,2.72
2022-12-08T06:47:26.062Z,2.78
2022-12-08T06:49:56.584Z,3.53
2022-12-08T06:52:26.685Z,4.85
2022-12-08T06:54:56.793Z,4.47
2022-12-08T06:57:26.887Z,5.40
2022-12-08T06:59:57.052Z,5.28
2022-12-08T07:02:27.225Z,4.13
2022-12-08T07:04:57.401Z,3.00
2022-12-08T07:07:27.644Z,5.38
2022-12-08T07:09:57.799Z,6.05
2022-12-08T07:12:27.906Z,3.75
2022-12-08T07:14:58.187Z,2.63
2022-12-08T07:17:28.262Z,2.42
2022-12-08T07:20:02.328Z,2.97
2022-12-08T07:22:32.818Z,2.97
2022-12-08T07:25:03.320Z,2.38
2022-12-08T07:27:33.551Z,3.40
2022-12-08T07:30:04.441Z,3.28
2022-12-08T07:32:34.931Z,2.17
2022-12-08T07:35:06.483Z,2.28
2022-12-08T07:37:37.704Z,2.65
2022-12-08T07:40:09.014Z,3.85
2022-12-08T07:42:39.344Z,2.90
2022-12-08T07:45:09.911Z,3.10
2022-12-08T07:47:40.052Z,2.78
2022-12-08T07:50:10.316Z,3.53
2022-12-08T07:52:40.495Z,3.83
2022-12-08T07:55:10.611Z,3.55
2022-12-08T07:57:40.849Z,2.90
2022-12-08T08:00:11.570Z,3.13
2022-12-08T08:02:42.256Z,3.25
2022-12-08T08:05:12.664Z,2.70
2022-12-08T08:07:43.886Z,3.42
2022-12-08T08:10:14.095Z,2.40
2022-12-08T08:12:44.451Z,2.65
2022-12-08T08:15:14.742Z,2.53
2022-12-08T08:17:45.134Z,2.00
2022-12-08T08:20:15.331Z,2.92
2022-12-08T08:22:50.464Z,1.98
2022-12-08T08:25:22.952Z,2.25
2022-12-08T08:27:54.595Z,2.28
2022-12-08T08:30:25.084Z,2.08
2022-12-08T08:32:55.325Z,1.95
2022-12-08T08:35:25.893Z,1.95
2022-12-08T08:37:56.490Z,1.52
2022-12-08T08:40:26.618Z,3.20
2022-12-08T08:42:56.845Z,2.72
2022-12-08T08:45:27.061Z,2.22
2022-12-08T08:47:57.350Z,2.25
2022-12-08T08:50:30.510Z,1.70
2022-12-08T08:55:34.917Z,2.92
2022-12-08T08:58:05.122Z,1.77
2022-12-08T09:00:35.300Z,4.25
2022-12-08T09:03:05.560Z,3.40
2022-12-08T09:05:39.521Z,2.58
2022-12-08T09:08:09.752Z,5.32
2022-12-08T09:10:40.033Z,4.50
2022-12-08T09:13:10.137Z,3.88
2022-12-08T09:15:40.451Z,3.55
2022-12-08T09:18:12.129Z,2.75
2022-12-08T09:20:43.948Z,2.17
2022-12-08T09:23:15.295Z,2.95
2022-12-08T09:25:48.609Z,24.40
2022-12-08T09:28:18.850Z,5.60
2022-12-08T09:30:48.963Z,4.40
2022-12-08T09:33:19.106Z,3.10
2022-12-08T09:35:49.510Z,2.50
2022-12-08T09:38:19.737Z,3.53
2022-12-08T09:40:54.493Z,2.72
2022-12-08T09:43:36.062Z,2.60
2022-12-08T09:46:10.594Z,3.00
2022-12-08T09:48:52.050Z,3.38
2022-12-08T09:51:27.122Z,4.57
2022-12-08T09:54:19.399Z,3.42
2022-12-08T09:56:55.171Z,4.60
2022-12-08T09:59:33.625Z,3.60
2022-12-08T10:02:22.660Z,3.70
2022-12-08T10:05:02.677Z,3.50
2022-12-08T10:07:48.955Z,4.15
2022-12-08T10:10:42.415Z,2.80
2022-12-08T10:13:36.416Z,3.33
2022-12-08T14:24:54.799Z,11.02
2022-12-08T14:27:27.142Z,11.75
2022-12-08T14:30:00.690Z,13.55
2022-12-08T14:32:44.537Z,10.35
2022-12-08T14:35:23.814Z,10.40
2022-12-08T14:38:00.274Z,11.35
2022-12-08T14:40:45.286Z,10.93
2022-12-08T14:43:19.078Z,10.85
2022-12-08T14:45:53.617Z,16.02
2022-12-08T14:48:28.500Z,12.95
2022-12-08T14:51:21.651Z,12.77
2022-12-08T14:54:01.760Z,10.60
2022-12-08T14:56:39.196Z,16.58
2022-12-08T14:59:19.560Z,15.43
2022-12-08T15:01:52.588Z,11.48
2022-12-08T15:04:28.621Z,9.85
2022-12-08T15:07:22.890Z,9.63
2022-12-08T15:10:08.595Z,10.80
2022-12-08T15:12:38.931Z,10.13
2022-12-08T15:15:08.998Z,9.55
2022-12-08T15:17:49.802Z,11.48
2022-12-08T15:20:43.292Z,9.85
2022-12-08T15:23:21.648Z,10.43
2022-12-08T15:25:52.599Z,9.40
2022-12-08T15:28:29.796Z,9.50
2022-12-08T15:31:00.875Z,8.65
2022-12-08T15:33:31.109Z,10.35
2022-12-08T15:36:01.302Z,9.68
2022-12-08T15:38:31.594Z,9.77
2022-12-08T15:41:01.898Z,10.32
2022-12-08T15:43:32.585Z,11.20
2022-12-08T15:46:04.642Z,10.27
2022-12-08T15:48:34.771Z,11.20
2022-12-08T15:51:04.976Z,11.20
2022-12-08T15:53:35.064Z,8.88
2022-12-08T15:58:58.623Z,10.23
2022-12-08T16:01:29.250Z,11.18
2022-12-08T16:04:27.900Z,15.48
2022-12-08T16:09:44.606Z,16.25
2022-12-08T16:18:25.093Z,14.15
2022-12-08T16:23:46.229Z,13.90
2022-12-08T16:27:50.638Z,14.02
2022-12-08T16:29:18.815Z,15.43
2022-12-08T16:31:50.312Z,15.00
2022-12-08T16:34:20.495Z,13.98
2022-12-08T16:36:52.591Z,15.88
2022-12-08T16:39:22.750Z,14.98
2022-12-08T16:42:11.571Z,13.75
2022-12-08T16:44:44.913Z,11.95
2022-12-08T16:47:15.106Z,14.80
2022-12-08T16:49:45.389Z,11.90
2022-12-08T16:52:17.399Z,14.38
2022-12-08T16:54:47.589Z,17.67
2022-12-08T16:57:17.759Z,20.48
2022-12-08T16:59:48.060Z,19.35
2022-12-08T17:02:19.017Z,20.20
2022-12-08T17:04:49.273Z,31.67
2022-12-08T17:07:19.457Z,24.60
2022-12-08T17:09:49.613Z,23.45
2022-12-08T17:12:19.834Z,16.70
2022-12-08T17:14:50.133Z,17.48
2022-12-08T17:17:20.315Z,17.63
2022-12-08T17:19:50.498Z,16.95
2022-12-08T17:22:20.697Z,16.65
2022-12-08T17:24:50.971Z,18.48
2022-12-08T17:27:21.217Z,15.38
2022-12-08T17:29:51.463Z,16.83
2022-12-08T17:32:22.003Z,15.43
2022-12-08T17:34:52.341Z,15.25
2022-12-08T17:37:22.568Z,16.38
2022-12-08T17:39:52.771Z,16.98
2022-12-08T17:42:26.200Z,15.30
2022-12-08T17:45:08.125Z,15.65
2022-12-08T17:47:38.987Z,19.10
2022-12-08T17:50:11.152Z,23.05
2022-12-08T17:52:41.830Z,17.70
2022-12-08T17:55:12.440Z,16.20
2022-12-08T17:57:42.974Z,16.02
2022-12-08T18:00:13.940Z,25.85
2022-12-08T18:02:44.155Z,16.02
2022-12-08T18:05:14.367Z,13.27
2022-12-08T18:07:44.921Z,11.85
2022-12-08T18:10:16.265Z,12.15
2022-12-08T18:12:46.755Z,12.55
2022-12-08T18:15:19.568Z,11.77
2022-12-08T18:17:49.719Z,14.05
2022-12-08T18:20:19.857Z,15.55
2022-12-08T18:22:51.771Z,12.15
2022-12-08T18:25:22.451Z,15.63
2022-12-08T18:27:53.425Z,13.68
2022-12-08T18:30:23.999Z,12.50
2022-12-08T18:32:57.333Z,12.50
2022-12-08T18:35:29.035Z,15.85
2022-12-08T18:38:00.478Z,12.50
2022-12-08T18:40:30.995Z,14.45
2022-12-08T18:43:01.190Z,13.45
2022-12-08T18:45:31.375Z,22.02
2022-12-08T18:48:01.542Z,13.50
2022-12-08T18:50:32.057Z,11.88
2022-12-08T18:53:02.753Z,14.48
2022-12-08T18:55:33.447Z,15.63
2022-12-08T18:58:04.116Z,15.02
2022-12-08T19:00:34.739Z,13.82
2022-12-08T19:03:05.541Z,13.43
2022-12-08T19:05:36.163Z,13.32
2022-12-08T19:08:07.374Z,13.25
2022-12-08T19:10:42.814Z,14.57
2022-12-08T19:13:15.219Z,15.57
2022-12-08T19:15:45.524Z,12.20
2022-12-08T19:18:16.301Z,18.60
2022-12-08T19:20:46.617Z,20.85
2022-12-08T19:23:16.990Z,16.65
2022-12-08T19:25:47.267Z,16.38
2022-12-08T19:28:17.516Z,16.17
2022-12-08T19:30:47.853Z,16.30
2022-12-08T19:33:18.018Z,18.20
2022-12-08T19:35:52.611Z,14.88
2022-12-08T19:38:23.213Z,14.48
2022-12-08T19:41:11.831Z,15.82
2022-12-08T19:44:00.347Z,11.05
2022-12-08T19:46:32.663Z,11.95
2022-12-08T19:49:06.143Z,9.38
2022-12-08T19:51:36.569Z,14.50
2022-12-08T19:54:07.597Z,13.18
2022-12-08T19:56:37.836Z,14.88
2022-12-08T19:59:08.161Z,12.75
2022-12-08T20:01:38.912Z,21.10
2022-12-08T20:04:10.650Z,18.02
2022-12-08T20:06:41.328Z,13.75
2022-12-08T20:09:13.151Z,12.30
2022-12-08T20:11:43.462Z,14.85
2022-12-08T20:14:13.631Z,14.10
2022-12-08T20:16:44.111Z,11.55
2022-12-08T20:19:14.401Z,12.85
2022-12-08T20:21:45.072Z,13.63
2022-12-08T20:24:16.811Z,12.68
2022-12-08T20:26:47.548Z,12.93
2022-12-08T20:29:18.909Z,11.50
2022-12-08T20:31:49.159Z,11.00
2022-12-08T20:34:20.094Z,18.10
2022-12-08T20:36:50.413Z,12.23
2022-12-08T20:39:20.582Z,13.48
2022-12-08T20:41:52.316Z,11.43
2022-12-08T20:44:28.873Z,12.15
2022-12-08T20:47:04.370Z,20.98
2022-12-08T20:49:42.021Z,16.02
2022-12-08T20:52:15.283Z,15.63
2022-12-08T20:54:50.513Z,13.63
2022-12-08T20:57:25.493Z,15.88
2022-12-08T20:59:59.218Z,13.80
2022-12-08T21:02:35.487Z,28.00
2022-12-08T21:05:08.908Z,13.10
2022-12-08T21:07:44.184Z,11.23
2022-12-08T21:10:20.022Z,14.68
2022-12-08T21:12:53.567Z,15.35
2022-12-08T21:15:25.221Z,11.07
2022-12-08T21:18:14.591Z,13.60
2022-12-08T21:20:47.311Z,21.30
2022-12-08T21:23:19.890Z,14.93
2022-12-08T21:25:51.729Z,12.55
2022-12-08T21:28:23.143Z,10.50
2022-12-08T21:30:56.435Z,11.55
2022-12-08T21:33:30.698Z,10.32
2022-12-08T21:36:15.668Z,10.45
2022-12-08T21:38:50.689Z,9.70
2022-12-08T21:41:49.690Z,21.63
2022-12-08T21:44:25.325Z,13.38
2022-12-08T21:47:01.412Z,10.98
2022-12-08T21:49:35.967Z,10.77
2022-12-08T21:52:14.596Z,8.35
2022-12-08T21:54:50.323Z,10.07
2022-12-08T21:57:20.635Z,11.30
2022-12-08T21:59:51.486Z,12.57
2022-12-08T22:02:23.224Z,13.15
2022-12-08T22:04:54.641Z,16.10
2022-12-08T22:07:25.367Z,20.48
2022-12-08T22:09:55.806Z,13.63
2022-12-08T22:12:26.155Z,21.98
2022-12-08T22:14:56.424Z,12.73
2022-12-08T22:17:26.799Z,12.23
2022-12-08T22:19:57.228Z,9.23
2022-12-08T22:22:27.641Z,9.57
2022-12-08T22:24:58.444Z,11.15
2022-12-08T22:27:28.996Z,9.05
2022-12-08T22:29:59.437Z,11.60
2022-12-08T22:32:29.740Z,10.60
2022-12-08T22:34:59.993Z,10.60
2022-12-08T22:37:30.232Z,11.07
2022-12-08T22:40:00.501Z,11.55
2022-12-08T22:42:31.207Z,12.75
2022-12-08T22:45:01.778Z,10.85
2022-12-08T22:47:32.115Z,9.50
2022-12-08T22:50:03.201Z,10.73
2022-12-08T22:52:33.802Z,10.32
2022-12-08T22:55:05.801Z,10.05
2022-12-08T22:57:36.052Z,9.55
2022-12-08T23:00:07.432Z,9.43
2022-12-08T23:02:38.263Z,11.13
2022-12-08T23:05:09.024Z,12.68
2022-12-08T23:07:39.902Z,14.40
2022-12-08T23:10:11.914Z,14.60
2022-12-08T23:12:42.512Z,12.30
2022-12-08T23:15:12.955Z,14.18
2022-12-08T23:17:43.482Z,21.60
2022-12-08T23:20:13.906Z,18.52
2022-12-08T23:22:44.128Z,12.27
2022-12-08T23:25:14.740Z,16.83
2022-12-08T23:27:46.052Z,12.52
2022-12-08T23:30:22.409Z,11.07
2022-12-08T23:32:56.600Z,10.33
2022-12-08T23:35:27.283Z,16.65
2022-12-08T23:37:57.992Z,9.55
2022-12-08T23:40:28.527Z,13.25
2022-12-08T23:42:58.862Z,15.13
2022-12-08T23:45:29.700Z,10.98
2022-12-08T23:48:00.248Z,11.18
2022-12-08T23:50:30.751Z,10.85
2022-12-08T23:53:01.150Z,9.73
2022-12-08T23:55:33.018Z,10.85
2022-12-08T23:58:03.460Z,8.13
